This is the latest recevied weather packets stored in our database for station/object N7ZEF. If no packets are shown the sender has not sent any weather packets the latest 10 day(s).
| Time | Temp. | Humidity | Pressure | Rain* | Wind** | Luminosity | Snow |
|---|---|---|---|---|---|---|---|
| 1777946693 | 10.56° C | 62% | 1009.5 hPa | 0 mm | - | - | - |
| 1777946092 | 10.56° C | 63% | 1009.4 hPa | 0 mm | - | - | - |
| 1777945490 | 11.11° C | 62% | 1009.5 hPa | 0 mm | - | - | - |
| 1777944889 | 11.11° C | 60% | 1009.5 hPa | 0 mm | - | - | - |
| 1777944287 | 12.22° C | 54% | 1009.3 hPa | 0 mm | - | - | - |
| 1777944201 | 12.22° C | 50% | 1009.3 hPa | 0 mm | - | - | - |
| 1777943686 | 12.22° C | 50% | 1009.3 hPa | 0 mm | - | - | - |
| 1777943085 | 13.33° C | 53% | 1009.4 hPa | 0 mm | - | - | - |
| 1777942483 | 12.22° C | 52% | 1009.3 hPa | 0 mm | - | - | - |
| 1777941882 | 13.89° C | 45% | 1010.2 hPa | 0 mm | - | - | - |
| 1777941793 | 16.11° C | 35% | 1008.6 hPa | 0 mm | - | - | - |
| 1777941280 | 14.44° C | 37% | 1009.4 hPa | 0 mm | - | - | - |
| 1777940679 | 14.44° C | 38% | 1009 hPa | 0 mm | - | - | - |
| 1777940078 | 15° C | 37% | 1009 hPa | 0 mm | - | - | - |
| 1777939476 | 15.56° C | 36% | 1008.9 hPa | 0 mm | - | - | - |
| 1777938875 | 15.56° C | 36% | 1008.5 hPa | 0 mm | - | - | - |
| 1777938273 | 16.11° C | 35% | 1008.6 hPa | 0 mm | - | - | - |
| 1777937672 | 15.56° C | 35% | 1008.8 hPa | 0 mm | - | - | - |
| 1777937071 | 15.56° C | 36% | 1008.5 hPa | 0 mm | - | - | - |
| 1777936469 | 15° C | 37% | 1008.4 hPa | 0 mm | - | - | - |
| 1777935868 | 16.11° C | 38% | 1008.4 hPa | 0 mm | - | - | - |
| 1777935591 | 16.11° C | 31% | 1008.5 hPa | 0 mm | - | - | - |
| 1777935266 | 16.11° C | 31% | 1008.5 hPa | 0 mm | - | - | - |
| 1777934665 | 17.22° C | 29% | 1008.3 hPa | 0 mm | - | - | - |
| 1777934064 | 17.22° C | 29% | 1008.4 hPa | 0 mm | - | - | - |
* Rain latest hour (hover to see other rain measurements)
** Current wind speed in m/s (hover to see current wind gust speed)